Zwijndrecht, Belgium
Current Conditions -  °F | °C
As of 4:20 PM on Monday 22 Dec 2014 (Local Time) from EBAW Reporting Station
Broken Clouds Broken Clouds  
Wind Chill: 55°   Ceiling: 1900
Heat Index: 55°   Visibility: 6mi
Dew Point: 48°   Wind: 20mph
Humidity: 77%   Direction: 250°WSW
Pressure: 30.09"   Gusts: NA
Location:  51.22°N, 4.33°E
Report Text: EBAW 221520Z 25017KT 9999 FEW016 BKN019 13/09 Q1019 TEMPO 24020G30KT
Loading
Personal Weather Stations






























Interactive Weather Map New forecast layout! Learn more

10-Day Weather Forecast

Advertisements
Track Severe Weather on mobile